sensor_id;sensor_type;location;lat;lon;timestamp;pressure;altitude;pressure_sealevel;temperature;humidity
84136;BME280;74238;50.566;7.262;2024-03-02T00:00:00;99580.78;;;6.05;72.79
84136;BME280;74238;50.566;7.262;2024-03-02T00:02:26;99618.06;;;6.30;73.58
84136;BME280;74238;50.566;7.262;2024-03-02T00:04:52;99626.69;;;6.36;73.44
84136;BME280;74238;50.566;7.262;2024-03-02T00:07:17;99616.19;;;6.36;73.36
84136;BME280;74238;50.566;7.262;2024-03-02T00:09:43;99570.16;;;6.17;73.29
84136;BME280;74238;50.566;7.262;2024-03-02T00:12:11;99620.44;;;6.47;73.33
84136;BME280;74238;50.566;7.262;2024-03-02T00:14:40;99617.78;;;6.48;73.82
84136;BME280;74238;50.566;7.262;2024-03-02T00:17:17;99620.28;;;6.56;73.93
84136;BME280;74238;50.566;7.262;2024-03-02T00:19:46;99565.56;;;6.33;73.15
84136;BME280;74238;50.566;7.262;2024-03-02T00:22:11;99614.94;;;6.62;73.82
84136;BME280;74238;50.566;7.262;2024-03-02T00:24:37;99609.56;;;6.73;73.19
84136;BME280;74238;50.566;7.262;2024-03-02T00:27:03;99613.00;;;6.76;73.31
84136;BME280;74238;50.566;7.262;2024-03-02T00:29:29;99604.19;;;6.80;73.94
84136;BME280;74238;50.566;7.262;2024-03-02T00:31:54;99568.59;;;6.64;73.25
84136;BME280;74238;50.566;7.262;2024-03-02T00:34:21;99539.16;;;6.47;72.69
84136;BME280;74238;50.566;7.262;2024-03-02T00:36:47;99599.00;;;6.79;73.16
84136;BME280;74238;50.566;7.262;2024-03-02T00:39:15;99588.34;;;6.86;73.22
84136;BME280;74238;50.566;7.262;2024-03-02T00:41:42;99590.16;;;6.84;73.21
84136;BME280;74238;50.566;7.262;2024-03-02T00:44:09;99597.13;;;6.85;73.04
84136;BME280;74238;50.566;7.262;2024-03-02T00:46:39;99593.66;;;6.83;73.28
84136;BME280;74238;50.566;7.262;2024-03-02T00:49:12;99533.88;;;6.48;73.62
84136;BME280;74238;50.566;7.262;2024-03-02T00:51:39;99558.09;;;6.64;73.16
84136;BME280;74238;50.566;7.262;2024-03-02T00:54:07;99590.16;;;6.83;73.34
84136;BME280;74238;50.566;7.262;2024-03-02T00:56:33;99593.66;;;6.83;73.31
84136;BME280;74238;50.566;7.262;2024-03-02T00:59:00;99585.75;;;6.85;73.30
84136;BME280;74238;50.566;7.262;2024-03-02T01:01:25;99591.00;;;6.85;74.01
84136;BME280;74238;50.566;7.262;2024-03-02T01:03:50;99550.19;;;6.67;73.97
84136;BME280;74238;50.566;7.262;2024-03-02T01:06:16;99579.66;;;6.83;73.63
84136;BME280;74238;50.566;7.262;2024-03-02T01:08:42;99580.56;;;6.82;73.75
84136;BME280;74238;50.566;7.262;2024-03-02T01:11:08;99584.09;;;6.79;73.61
84136;BME280;74238;50.566;7.262;2024-03-02T01:13:33;99578.88;;;6.78;73.41
84136;BME280;74238;50.566;7.262;2024-03-02T01:15:59;99580.69;;;6.74;73.50
84136;BME280;74238;50.566;7.262;2024-03-02T01:18:24;99576.34;;;6.72;73.43
84136;BME280;74238;50.566;7.262;2024-03-02T01:20:50;99552.16;;;6.54;73.81
84136;BME280;74238;50.566;7.262;2024-03-02T01:23:20;99555.72;;;6.49;73.94
84136;BME280;74238;50.566;7.262;2024-03-02T01:25:47;99579.09;;;6.64;74.00
84136;BME280;74238;50.566;7.262;2024-03-02T01:28:13;99582.63;;;6.63;73.79
84136;BME280;74238;50.566;7.262;2024-03-02T01:30:38;99584.38;;;6.62;73.67
84136;BME280;74238;50.566;7.262;2024-03-02T01:33:04;99550.56;;;6.42;74.00
84136;BME280;74238;50.566;7.262;2024-03-02T01:35:31;99576.50;;;6.61;73.51
84136;BME280;74238;50.566;7.262;2024-03-02T01:37:56;99556.59;;;6.49;73.27
84136;BME280;74238;50.566;7.262;2024-03-02T01:40:21;99531.53;;;6.30;74.18
84136;BME280;74238;50.566;7.262;2024-03-02T01:42:46;99547.13;;;6.39;73.69
84136;BME280;74238;50.566;7.262;2024-03-02T01:45:12;99568.75;;;6.53;74.36
84136;BME280;74238;50.566;7.262;2024-03-02T01:47:37;99576.66;;;6.52;74.09
84136;BME280;74238;50.566;7.262;2024-03-02T01:50:03;99573.19;;;6.50;73.90
84136;BME280;74238;50.566;7.262;2024-03-02T01:52:28;99570.56;;;6.48;74.19
84136;BME280;74238;50.566;7.262;2024-03-02T01:54:54;99535.06;;;6.27;74.58
84136;BME280;74238;50.566;7.262;2024-03-02T01:57:20;99496.81;;;6.14;74.49
84136;BME280;74238;50.566;7.262;2024-03-02T01:59:46;99561.00;;;6.47;74.31
84136;BME280;74238;50.566;7.262;2024-03-02T02:02:13;99534.13;;;6.33;73.76
84136;BME280;74238;50.566;7.262;2024-03-02T02:04:38;99558.41;;;6.44;74.63
84136;BME280;74238;50.566;7.262;2024-03-02T02:07:04;99568.06;;;6.42;74.39
84136;BME280;74238;50.566;7.262;2024-03-02T02:09:29;99530.81;;;6.18;73.50
84136;BME280;74238;50.566;7.262;2024-03-02T02:11:54;99560.25;;;6.37;74.33
84136;BME280;74238;50.566;7.262;2024-03-02T02:14:20;99526.50;;;6.14;74.48
84136;BME280;74238;50.566;7.262;2024-03-02T02:16:45;99518.75;;;6.05;74.64
84136;BME280;74238;50.566;7.262;2024-03-02T02:19:10;99549.94;;;6.25;74.72
84136;BME280;74238;50.566;7.262;2024-03-02T02:21:36;99533.56;;;6.09;74.42
84136;BME280;74238;50.566;7.262;2024-03-02T02:24:01;99548.25;;;6.21;74.84
84136;BME280;74238;50.566;7.262;2024-03-02T02:26:29;99546.53;;;6.20;75.14
84136;BME280;74238;50.566;7.262;2024-03-02T02:28:54;99540.41;;;6.19;75.01
84136;BME280;74238;50.566;7.262;2024-03-02T02:31:19;99527.41;;;6.12;74.70
84136;BME280;74238;50.566;7.262;2024-03-02T02:33:44;99542.19;;;6.16;75.00
84136;BME280;74238;50.566;7.262;2024-03-02T02:36:10;99538.75;;;6.12;74.57
84136;BME280;74238;50.566;7.262;2024-03-02T02:38:38;99526.53;;;6.13;74.49
84136;BME280;74238;50.566;7.262;2024-03-02T02:41:04;99482.31;;;5.87;75.34
84136;BME280;74238;50.566;7.262;2024-03-02T02:43:29;99490.97;;;5.95;74.75
84136;BME280;74238;50.566;7.262;2024-03-02T02:45:55;99509.97;;;6.09;75.26
84136;BME280;74238;50.566;7.262;2024-03-02T02:48:20;99515.22;;;6.11;75.28
84136;BME280;74238;50.566;7.262;2024-03-02T02:50:45;99438.97;;;5.66;74.21
84136;BME280;74238;50.566;7.262;2024-03-02T02:53:11;99489.22;;;5.94;74.81
84136;BME280;74238;50.566;7.262;2024-03-02T02:55:36;99493.50;;;5.99;74.24
84136;BME280;74238;50.566;7.262;2024-03-02T02:58:11;99521.28;;;6.13;74.11
84136;BME280;74238;50.566;7.262;2024-03-02T03:00:36;99528.28;;;6.12;74.07
84136;BME280;74238;50.566;7.262;2024-03-02T03:03:02;99478.03;;;5.81;74.66
84136;BME280;74238;50.566;7.262;2024-03-02T03:05:27;99531.81;;;6.10;74.54
84136;BME280;74238;50.566;7.262;2024-03-02T03:07:53;99534.47;;;6.07;74.66
84136;BME280;74238;50.566;7.262;2024-03-02T03:10:18;99533.66;;;6.03;75.32
84136;BME280;74238;50.566;7.262;2024-03-02T03:12:43;99528.50;;;5.95;74.64
84136;BME280;74238;50.566;7.262;2024-03-02T03:15:09;99533.75;;;5.95;74.52
84136;BME280;74238;50.566;7.262;2024-03-02T03:17:35;99533.75;;;5.95;74.82
84136;BME280;74238;50.566;7.262;2024-03-02T03:20:02;99535.53;;;5.93;75.59
84136;BME280;74238;50.566;7.262;2024-03-02T03:22:29;99535.53;;;5.90;74.51
84136;BME280;74238;50.566;7.262;2024-03-02T03:24:55;99519.19;;;5.73;75.47
84136;BME280;74238;50.566;7.262;2024-03-02T03:27:20;99488.84;;;5.55;74.75
84136;BME280;74238;50.566;7.262;2024-03-02T03:29:45;99508.84;;;5.61;75.40
84136;BME280;74238;50.566;7.262;2024-03-02T03:32:11;99542.63;;;5.81;74.63
84136;BME280;74238;50.566;7.262;2024-03-02T03:34:36;99535.66;;;5.78;74.94
84136;BME280;74238;50.566;7.262;2024-03-02T03:37:02;99542.72;;;5.76;75.66
84136;BME280;74238;50.566;7.262;2024-03-02T03:39:27;99544.47;;;5.75;75.54
84136;BME280;74238;50.566;7.262;2024-03-02T03:41:53;99543.56;;;5.75;75.14
84136;BME280;74238;50.566;7.262;2024-03-02T03:44:19;99531.38;;;5.74;75.95
84136;BME280;74238;50.566;7.262;2024-03-02T03:46:44;99507.16;;;5.53;75.88
84136;BME280;74238;50.566;7.262;2024-03-02T03:49:09;99541.81;;;5.77;75.51
84136;BME280;74238;50.566;7.262;2024-03-02T03:51:35;99514.13;;;5.59;75.42
84136;BME280;74238;50.566;7.262;2024-03-02T03:54:00;99545.28;;;5.79;75.08
84136;BME280;74238;50.566;7.262;2024-03-02T03:56:26;99534.81;;;5.77;75.18
84136;BME280;74238;50.566;7.262;2024-03-02T03:58:51;99527.00;;;5.76;75.38
84136;BME280;74238;50.566;7.262;2024-03-02T04:01:17;99535.72;;;5.75;76.18
84136;BME280;74238;50.566;7.262;2024-03-02T04:03:42;99527.03;;;5.70;75.69
84136;BME280;74238;50.566;7.262;2024-03-02T04:06:08;99536.59;;;5.75;75.57
84136;BME280;74238;50.566;7.262;2024-03-02T04:08:33;99531.38;;;5.74;76.33
84136;BME280;74238;50.566;7.262;2024-03-02T04:10:58;99460.34;;;5.29;75.74
84136;BME280;74238;50.566;7.262;2024-03-02T04:13:23;99550.59;;;5.71;75.86
84136;BME280;74238;50.566;7.262;2024-03-02T04:15:49;99548.00;;;5.70;75.51
84136;BME280;74238;50.566;7.262;2024-03-02T04:18:14;99546.25;;;5.70;75.57
84136;BME280;74238;50.566;7.262;2024-03-02T04:20:39;99527.22;;;5.58;75.81
84136;BME280;74238;50.566;7.262;2024-03-02T04:23:04;99531.50;;;5.63;76.62
84136;BME280;74238;50.566;7.262;2024-03-02T04:25:30;99456.13;;;5.16;76.10
84136;BME280;74238;50.566;7.262;2024-03-02T04:27:55;99540.19;;;5.68;75.69
84136;BME280;74238;50.566;7.262;2024-03-02T04:30:21;99490.81;;;5.36;76.39
84136;BME280;74238;50.566;7.262;2024-03-02T04:32:46;99542.78;;;5.67;75.80
84136;BME280;74238;50.566;7.262;2024-03-02T04:35:12;99531.59;;;5.57;75.57
84136;BME280;74238;50.566;7.262;2024-03-02T04:37:40;99503.03;;;5.34;75.80
84136;BME280;74238;50.566;7.262;2024-03-02T04:40:06;99496.22;;;5.19;76.23
84136;BME280;74238;50.566;7.262;2024-03-02T04:42:35;99566.47;;;5.56;76.05
84136;BME280;74238;50.566;7.262;2024-03-02T04:45:01;99566.53;;;5.53;77.00
84136;BME280;74238;50.566;7.262;2024-03-02T04:47:26;99505.00;;;5.14;76.34
84136;BME280;74238;50.566;7.262;2024-03-02T04:49:52;99516.28;;;5.20;76.35
84136;BME280;74238;50.566;7.262;2024-03-02T04:52:17;99578.75;;;5.54;76.47
84136;BME280;74238;50.566;7.262;2024-03-02T04:54:42;99547.50;;;5.37;76.61
84136;BME280;74238;50.566;7.262;2024-03-02T04:57:27;99577.84;;;5.55;76.38
84136;BME280;74238;50.566;7.262;2024-03-02T04:59:52;99577.84;;;5.57;76.44
84136;BME280;74238;50.566;7.262;2024-03-02T05:02:17;99579.56;;;5.58;77.04
84136;BME280;74238;50.566;7.262;2024-03-02T05:04:43;99590.91;;;5.60;77.08
84136;BME280;74238;50.566;7.262;2024-03-02T05:07:08;99594.34;;;5.63;76.22
84136;BME280;74238;50.566;7.262;2024-03-02T05:09:33;99585.63;;;5.63;77.05
84136;BME280;74238;50.566;7.262;2024-03-02T05:11:58;99601.22;;;5.72;77.05
84136;BME280;74238;50.566;7.262;2024-03-02T05:14:30;99573.47;;;5.57;75.96
84136;BME280;74238;50.566;7.262;2024-03-02T05:16:55;99594.16;;;5.82;76.38
84136;BME280;74238;50.566;7.262;2024-03-02T05:19:20;99588.88;;;5.83;75.74
84136;BME280;74238;50.566;7.262;2024-03-02T05:21:45;99587.09;;;5.87;76.19
84136;BME280;74238;50.566;7.262;2024-03-02T05:24:11;99591.44;;;5.89;76.35
84136;BME280;74238;50.566;7.262;2024-03-02T05:26:36;99579.22;;;5.90;76.32
84136;BME280;74238;50.566;7.262;2024-03-02T05:29:01;99591.44;;;5.89;75.95
84136;BME280;74238;50.566;7.262;2024-03-02T05:31:27;99591.41;;;5.91;76.04
84136;BME280;74238;50.566;7.262;2024-03-02T05:33:53;99587.94;;;5.89;75.24
84136;BME280;74238;50.566;7.262;2024-03-02T05:36:18;99562.84;;;5.69;75.97
84136;BME280;74238;50.566;7.262;2024-03-02T05:38:43;99597.53;;;5.88;75.72
84136;BME280;74238;50.566;7.262;2024-03-02T05:41:08;99589.69;;;5.88;76.35
84136;BME280;74238;50.566;7.262;2024-03-02T05:43:34;99544.59;;;5.63;76.25
84136;BME280;74238;50.566;7.262;2024-03-02T05:45:59;99572.28;;;5.84;76.43
84136;BME280;74238;50.566;7.262;2024-03-02T05:48:24;99577.44;;;5.89;76.34
84136;BME280;74238;50.566;7.262;2024-03-02T05:50:49;99562.72;;;5.82;76.11
84136;BME280;74238;50.566;7.262;2024-03-02T05:53:15;99584.47;;;5.87;75.76
84136;BME280;74238;50.566;7.262;2024-03-02T05:55:40;99574.91;;;5.83;75.42
84136;BME280;74238;50.566;7.262;2024-03-02T05:58:06;99592.34;;;5.85;75.60
84136;BME280;74238;50.566;7.262;2024-03-02T06:00:31;99601.94;;;5.86;76.04
84136;BME280;74238;50.566;7.262;2024-03-02T06:02:56;99599.34;;;5.85;76.64
84136;BME280;74238;50.566;7.262;2024-03-02T06:05:22;99604.53;;;5.86;76.33
84136;BME280;74238;50.566;7.262;2024-03-02T06:07:47;99610.69;;;5.85;76.01
84136;BME280;74238;50.566;7.262;2024-03-02T06:10:12;99627.28;;;5.84;75.94
84136;BME280;74238;50.566;7.262;2024-03-02T06:12:38;99581.28;;;5.59;76.57
84136;BME280;74238;50.566;7.262;2024-03-02T06:15:03;99631.63;;;5.87;76.42
84136;BME280;74238;50.566;7.262;2024-03-02T06:17:29;99628.13;;;5.86;76.34
84136;BME280;74238;50.566;7.262;2024-03-02T06:19:54;99631.63;;;5.87;75.65
84136;BME280;74238;50.566;7.262;2024-03-02T06:22:20;99635.13;;;5.87;76.60
84136;BME280;74238;50.566;7.262;2024-03-02T06:24:46;99599.50;;;5.69;76.11
84136;BME280;74238;50.566;7.262;2024-03-02T06:27:11;99628.06;;;5.92;75.99
84136;BME280;74238;50.566;7.262;2024-03-02T06:29:36;99637.69;;;5.95;76.48
84136;BME280;74238;50.566;7.262;2024-03-02T06:32:02;99635.94;;;5.94;76.79
84136;BME280;74238;50.566;7.262;2024-03-02T06:34:27;99627.22;;;5.92;75.88
84136;BME280;74238;50.566;7.262;2024-03-02T06:36:53;99581.22;;;5.66;75.97
84136;BME280;74238;50.566;7.262;2024-03-02T06:39:18;99634.22;;;5.90;76.01
84136;BME280;74238;50.566;7.262;2024-03-02T06:41:43;99597.78;;;5.68;76.62
84136;BME280;74238;50.566;7.262;2024-03-02T06:44:08;99642.06;;;5.94;75.93
84136;BME280;74238;50.566;7.262;2024-03-02T06:46:34;99653.41;;;5.95;75.48
84136;BME280;74238;50.566;7.262;2024-03-02T06:48:59;99642.94;;;5.92;75.93
84136;BME280;74238;50.566;7.262;2024-03-02T06:51:24;99648.16;;;5.95;76.15
84136;BME280;74238;50.566;7.262;2024-03-02T06:53:49;99640.22;;;5.99;76.17
84136;BME280;74238;50.566;7.262;2024-03-02T06:56:15;99635.84;;;6.02;75.41
84136;BME280;74238;50.566;7.262;2024-03-02T06:58:40;99633.25;;;6.00;75.49
84136;BME280;74238;50.566;7.262;2024-03-02T07:01:05;99639.34;;;6.02;75.73
84136;BME280;74238;50.566;7.262;2024-03-02T07:03:31;99636.72;;;6.04;75.55
84136;BME280;74238;50.566;7.262;2024-03-02T07:05:57;99592.44;;;5.77;75.53
84136;BME280;74238;50.566;7.262;2024-03-02T07:08:23;99644.47;;;6.11;75.43
84136;BME280;74238;50.566;7.262;2024-03-02T07:10:48;99652.31;;;6.13;75.82
84136;BME280;74238;50.566;7.262;2024-03-02T07:13:14;99645.34;;;6.12;75.42
84136;BME280;74238;50.566;7.262;2024-03-02T07:15:39;99588.00;;;5.83;75.48
84136;BME280;74238;50.566;7.262;2024-03-02T07:18:25;99648.81;;;6.14;76.16
84136;BME280;74238;50.566;7.262;2024-03-02T07:20:50;99628.06;;;5.95;75.73
84136;BME280;74238;50.566;7.262;2024-03-02T07:23:15;99652.25;;;6.16;75.37
84136;BME280;74238;50.566;7.262;2024-03-02T07:25:41;99660.97;;;6.18;75.56
84136;BME280;74238;50.566;7.262;2024-03-02T07:28:06;99650.53;;;6.15;74.92
84136;BME280;74238;50.566;7.262;2024-03-02T07:30:32;99658.28;;;6.26;75.81
84136;BME280;74238;50.566;7.262;2024-03-02T07:32:58;99667.84;;;6.30;75.51
84136;BME280;74238;50.566;7.262;2024-03-02T07:35:24;99673.06;;;6.31;75.42
84136;BME280;74238;50.566;7.262;2024-03-02T07:37:53;99674.72;;;6.38;74.68
84136;BME280;74238;50.566;7.262;2024-03-02T07:40:18;99676.44;;;6.41;75.33
84136;BME280;74238;50.566;7.262;2024-03-02T07:42:45;99645.16;;;6.27;75.73
84136;BME280;74238;50.566;7.262;2024-03-02T07:45:10;99659.81;;;6.43;75.36
84136;BME280;74238;50.566;7.262;2024-03-02T07:47:35;99676.16;;;6.62;74.58
84136;BME280;74238;50.566;7.262;2024-03-02T07:50:01;99670.00;;;6.65;75.01
84136;BME280;74238;50.566;7.262;2024-03-02T07:52:26;99683.84;;;6.76;74.25
84136;BME280;74238;50.566;7.262;2024-03-02T07:54:51;99636.88;;;6.58;74.86
84136;BME280;74238;50.566;7.262;2024-03-02T07:57:16;99689.75;;;6.91;74.58
84136;BME280;74238;50.566;7.262;2024-03-02T07:59:42;99687.06;;;6.95;74.50
84136;BME280;74238;50.566;7.262;2024-03-02T08:02:08;99691.34;;;7.01;74.26
84136;BME280;74238;50.566;7.262;2024-03-02T08:04:33;99688.63;;;7.07;74.20
84136;BME280;74238;50.566;7.262;2024-03-02T08:06:58;99678.09;;;7.10;74.02
84136;BME280;74238;50.566;7.262;2024-03-02T08:09:24;99672.81;;;7.12;73.85
84136;BME280;74238;50.566;7.262;2024-03-02T08:11:49;99683.28;;;7.13;74.06
84136;BME280;74238;50.566;7.262;2024-03-02T08:14:14;99685.91;;;7.13;73.75
84136;BME280;74238;50.566;7.262;2024-03-02T08:16:40;99688.47;;;7.16;73.46
84136;BME280;74238;50.566;7.262;2024-03-02T08:19:07;99690.13;;;7.25;73.37
84136;BME280;74238;50.566;7.262;2024-03-02T08:21:32;99689.09;;;7.33;73.28
84136;BME280;74238;50.566;7.262;2024-03-02T08:24:02;99677.63;;;7.39;72.81
84136;BME280;74238;50.566;7.262;2024-03-02T08:26:27;99676.59;;;7.48;72.27
84136;BME280;74238;50.566;7.262;2024-03-02T08:28:55;99671.16;;;7.60;71.97
84136;BME280;74238;50.566;7.262;2024-03-02T08:31:20;99672.69;;;7.72;71.69
84136;BME280;74238;50.566;7.262;2024-03-02T08:33:45;99655.72;;;7.90;71.89
84136;BME280;74238;50.566;7.262;2024-03-02T08:36:11;99668.91;;;9.13;68.03
84136;BME280;74238;50.566;7.262;2024-03-02T08:38:36;99653.06;;;10.47;64.03
84136;BME280;74238;50.566;7.262;2024-03-02T08:41:02;99648.91;;;10.96;60.87
84136;BME280;74238;50.566;7.262;2024-03-02T08:43:28;99674.56;;;10.64;61.48
84136;BME280;74238;50.566;7.262;2024-03-02T08:45:54;99660.97;;;10.15;63.02
84136;BME280;74238;50.566;7.262;2024-03-02T08:48:19;99685.28;;;9.94;64.87
84136;BME280;74238;50.566;7.262;2024-03-02T08:50:45;99689.19;;;10.12;64.40
84136;BME280;74238;50.566;7.262;2024-03-02T08:53:11;99697.44;;;11.21;60.82
84136;BME280;74238;50.566;7.262;2024-03-02T08:55:36;99689.47;;;12.51;57.86
84136;BME280;74238;50.566;7.262;2024-03-02T08:58:01;99681.53;;;13.41;53.83
84136;BME280;74238;50.566;7.262;2024-03-02T09:00:27;99683.72;;;13.94;52.64
84136;BME280;74238;50.566;7.262;2024-03-02T09:02:52;99688.47;;;14.47;50.46
84136;BME280;74238;50.566;7.262;2024-03-02T09:05:17;99647.78;;;14.66;49.59
84136;BME280;74238;50.566;7.262;2024-03-02T09:07:43;99679.59;;;15.05;47.96
84136;BME280;74238;50.566;7.262;2024-03-02T09:10:08;99667.97;;;15.07;47.96
84136;BME280;74238;50.566;7.262;2024-03-02T09:12:34;99673.28;;;15.07;47.38
84136;BME280;74238;50.566;7.262;2024-03-02T09:15:00;99664.22;;;14.93;47.68
84136;BME280;74238;50.566;7.262;2024-03-02T09:17:27;99671.34;;;14.73;49.07
84136;BME280;74238;50.566;7.262;2024-03-02T09:19:52;99672.78;;;14.80;49.25
84136;BME280;74238;50.566;7.262;2024-03-02T09:22:18;99656.22;;;15.12;47.22
84136;BME280;74238;50.566;7.262;2024-03-02T09:24:43;99664.28;;;15.10;47.34
84136;BME280;74238;50.566;7.262;2024-03-02T09:27:08;99668.50;;;15.14;47.63
84136;BME280;74238;50.566;7.262;2024-03-02T09:29:34;99655.13;;;14.79;48.24
84136;BME280;74238;50.566;7.262;2024-03-02T09:31:59;99578.25;;;14.18;49.21
84136;BME280;74238;50.566;7.262;2024-03-02T09:34:24;99646.50;;;14.55;48.54
84136;BME280;74238;50.566;7.262;2024-03-02T09:36:51;99657.28;;;14.52;50.05
84136;BME280;74238;50.566;7.262;2024-03-02T09:39:16;99628.56;;;14.21;50.67
84136;BME280;74238;50.566;7.262;2024-03-02T09:41:43;99660.13;;;14.27;50.70
84136;BME280;74238;50.566;7.262;2024-03-02T09:44:09;99653.31;;;14.22;51.34
84136;BME280;74238;50.566;7.262;2024-03-02T09:46:34;99662.44;;;13.75;51.35
84136;BME280;74238;50.566;7.262;2024-03-02T09:49:02;99658.06;;;13.32;52.99
84136;BME280;74238;50.566;7.262;2024-03-02T09:51:27;99657.06;;;12.90;54.04
84136;BME280;74238;50.566;7.262;2024-03-02T09:53:54;99653.41;;;12.71;55.19
84136;BME280;74238;50.566;7.262;2024-03-02T09:56:21;99641.69;;;12.54;55.14
84136;BME280;74238;50.566;7.262;2024-03-02T09:58:46;99656.41;;;12.83;55.74
84136;BME280;74238;50.566;7.262;2024-03-02T10:01:11;99666.13;;;12.84;55.80
84136;BME280;74238;50.566;7.262;2024-03-02T10:03:37;99662.13;;;12.73;56.90
84136;BME280;74238;50.566;7.262;2024-03-02T10:08:46;99661.91;;;12.79;54.53
84136;BME280;74238;50.566;7.262;2024-03-02T10:11:26;99629.19;;;12.58;56.31
84136;BME280;74238;50.566;7.262;2024-03-02T10:14:10;99658.00;;;12.66;55.02
84136;BME280;74238;50.566;7.262;2024-03-02T10:16:41;99624.97;;;12.29;57.06
84136;BME280;74238;50.566;7.262;2024-03-02T10:19:23;99657.56;;;12.31;57.34
84136;BME280;74238;50.566;7.262;2024-03-02T10:21:54;99654.59;;;12.15;58.16
84136;BME280;74238;50.566;7.262;2024-03-02T10:24:21;99642.72;;;12.02;58.24
84136;BME280;74238;50.566;7.262;2024-03-02T10:26:47;99639.19;;;12.03;59.11
84136;BME280;74238;50.566;7.262;2024-03-02T10:29:12;99645.97;;;12.10;58.69
84136;BME280;74238;50.566;7.262;2024-03-02T10:31:42;99614.03;;;11.91;58.89
84136;BME280;74238;50.566;7.262;2024-03-02T10:34:09;99642.72;;;12.02;58.83
84136;BME280;74238;50.566;7.262;2024-03-02T10:36:35;99629.00;;;11.92;59.71
84136;BME280;74238;50.566;7.262;2024-03-02T10:39:04;99603.66;;;11.83;58.47
84136;BME280;74238;50.566;7.262;2024-03-02T10:41:34;99629.69;;;11.97;58.37
84136;BME280;74238;50.566;7.262;2024-03-02T10:44:07;99630.44;;;12.01;58.49
84136;BME280;74238;50.566;7.262;2024-03-02T10:46:35;99631.41;;;11.98;58.77
84136;BME280;74238;50.566;7.262;2024-03-02T10:49:02;99624.47;;;11.94;59.04
84136;BME280;74238;50.566;7.262;2024-03-02T10:51:30;99602.13;;;11.77;59.42
84136;BME280;74238;50.566;7.262;2024-03-02T10:54:02;99628.03;;;11.94;58.81
84136;BME280;74238;50.566;7.262;2024-03-02T10:56:32;99623.31;;;12.03;58.98
84136;BME280;74238;50.566;7.262;2024-03-02T10:59:17;99627.63;;;12.05;57.84
84136;BME280;74238;50.566;7.262;2024-03-02T11:01:48;99620.47;;;12.07;58.41
84136;BME280;74238;50.566;7.262;2024-03-02T11:04:16;99624.91;;;12.07;58.30
84136;BME280;74238;50.566;7.262;2024-03-02T11:06:48;99617.13;;;12.02;57.70
84136;BME280;74238;50.566;7.262;2024-03-02T11:09:14;99618.88;;;12.03;58.85
84136;BME280;74238;50.566;7.262;2024-03-02T11:11:43;99596.63;;;11.84;59.04
84136;BME280;74238;50.566;7.262;2024-03-02T11:14:13;99598.56;;;11.79;59.24
84136;BME280;74238;50.566;7.262;2024-03-02T11:16:39;99592.69;;;11.70;59.45
84136;BME280;74238;50.566;7.262;2024-03-02T11:19:11;99623.00;;;11.87;59.59
84136;BME280;74238;50.566;7.262;2024-03-02T11:21:38;99616.91;;;11.83;59.69
84136;BME280;74238;50.566;7.262;2024-03-02T11:26:50;99623.06;;;11.84;59.59
84136;BME280;74238;50.566;7.262;2024-03-02T11:32:02;99611.44;;;11.89;60.58
84136;BME280;74238;50.566;7.262;2024-03-02T11:34:35;99609.03;;;12.07;59.69
84136;BME280;74238;50.566;7.262;2024-03-02T11:37:02;99604.00;;;12.24;59.61
84136;BME280;74238;50.566;7.262;2024-03-02T11:39:29;99591.13;;;12.37;58.71
84136;BME280;74238;50.566;7.262;2024-03-02T11:41:56;99595.97;;;12.49;58.92
84136;BME280;74238;50.566;7.262;2024-03-02T11:44:26;99519.47;;;12.19;58.95
84136;BME280;74238;50.566;7.262;2024-03-02T11:46:52;99577.63;;;12.67;59.10
84136;BME280;74238;50.566;7.262;2024-03-02T11:49:36;99593.91;;;12.79;58.05
84136;BME280;74238;50.566;7.262;2024-03-02T11:52:04;99594.50;;;12.86;58.98
84136;BME280;74238;50.566;7.262;2024-03-02T11:54:32;99535.75;;;12.54;58.03
84136;BME280;74238;50.566;7.262;2024-03-02T11:57:01;99591.94;;;12.84;57.72
84136;BME280;74238;50.566;7.262;2024-03-02T11:59:28;99585.53;;;12.90;58.24
84136;BME280;74238;50.566;7.262;2024-03-02T12:01:54;99590.44;;;12.99;56.95
84136;BME280;74238;50.566;7.262;2024-03-02T12:04:19;99578.59;;;13.08;56.87
84136;BME280;74238;50.566;7.262;2024-03-02T12:06:45;99587.34;;;13.32;57.17
84136;BME280;74238;50.566;7.262;2024-03-02T12:09:12;99559.34;;;13.25;56.69
84136;BME280;74238;50.566;7.262;2024-03-02T12:11:40;99578.34;;;13.36;57.50
84136;BME280;74238;50.566;7.262;2024-03-02T12:14:11;99570.19;;;13.41;55.31
84136;BME280;74238;50.566;7.262;2024-03-02T12:16:37;99560.19;;;13.47;57.05
84136;BME280;74238;50.566;7.262;2024-03-02T12:19:04;99527.13;;;13.36;56.37
84136;BME280;74238;50.566;7.262;2024-03-02T12:21:30;99554.59;;;13.53;56.86
84136;BME280;74238;50.566;7.262;2024-03-02T12:23:55;99561.38;;;13.61;55.95
84136;BME280;74238;50.566;7.262;2024-03-02T12:26:21;99553.94;;;13.69;57.11
84136;BME280;74238;50.566;7.262;2024-03-02T12:28:47;99558.81;;;13.78;55.85
84136;BME280;74238;50.566;7.262;2024-03-02T12:31:13;99553.84;;;13.91;56.90
84136;BME280;74238;50.566;7.262;2024-03-02T12:33:40;99547.34;;;13.98;55.99
84136;BME280;74238;50.566;7.262;2024-03-02T12:36:09;99512.00;;;13.77;54.45
84136;BME280;74238;50.566;7.262;2024-03-02T12:38:34;99543.06;;;13.94;55.14
84136;BME280;74238;50.566;7.262;2024-03-02T12:41:00;99529.91;;;13.92;55.18
84136;BME280;74238;50.566;7.262;2024-03-02T12:43:30;99533.47;;;13.91;54.47
84136;BME280;74238;50.566;7.262;2024-03-02T12:45:55;99535.13;;;13.94;54.33
84136;BME280;74238;50.566;7.262;2024-03-02T12:48:21;99516.97;;;13.85;54.83
84136;BME280;74238;50.566;7.262;2024-03-02T12:50:47;99528.88;;;13.95;54.28
84136;BME280;74238;50.566;7.262;2024-03-02T12:53:16;99529.75;;;13.95;53.69
84136;BME280;74238;50.566;7.262;2024-03-02T12:55:41;99509.88;;;13.85;54.00
84136;BME280;74238;50.566;7.262;2024-03-02T12:58:07;99497.16;;;13.92;54.60
84136;BME280;74238;50.566;7.262;2024-03-02T13:00:32;99533.78;;;14.23;54.25
84136;BME280;74238;50.566;7.262;2024-03-02T13:03:01;99497.91;;;14.14;53.12
84136;BME280;74238;50.566;7.262;2024-03-02T13:05:31;99524.00;;;14.43;53.12
84136;BME280;74238;50.566;7.262;2024-03-02T13:07:58;99519.41;;;14.46;53.45
84136;BME280;74238;50.566;7.262;2024-03-02T13:10:24;99511.53;;;14.45;53.15